createdAt,value
2019-05-01T00:00:22.020Z,31.15
2019-05-01T00:03:08.133Z,29.57
2019-05-01T00:05:46.900Z,32.10
2019-05-01T00:08:15.721Z,30.43
2019-05-01T00:10:43.980Z,30.15
2019-05-01T00:13:12.228Z,31.55
2019-05-01T00:15:40.476Z,30.77
2019-05-01T00:18:08.736Z,33.02
2019-05-01T00:20:36.980Z,32.63
2019-05-01T00:23:05.228Z,30.32
2019-05-01T00:25:33.487Z,32.28
2019-05-01T00:28:01.750Z,32.08
2019-05-01T00:30:31.720Z,31.97
2019-05-01T00:32:59.965Z,32.83
2019-05-01T00:35:28.236Z,33.63
2019-05-01T00:37:56.480Z,32.15
2019-05-01T00:40:24.731Z,33.83
2019-05-01T00:42:52.996Z,33.28
2019-05-01T00:45:21.290Z,31.17
2019-05-01T00:47:49.549Z,31.57
2019-05-01T00:50:17.786Z,31.73
2019-05-01T00:52:46.037Z,31.85
2019-05-01T00:55:32.074Z,31.97
2019-05-01T00:58:11.212Z,32.63
2019-05-01T01:00:44.064Z,32.10
2019-05-01T01:03:12.624Z,31.23
2019-05-01T01:05:40.902Z,31.52
2019-05-01T01:08:09.165Z,31.40
2019-05-01T01:10:37.402Z,31.42
2019-05-01T01:13:05.657Z,30.32
2019-05-01T01:15:33.924Z,30.02
2019-05-01T01:18:02.188Z,30.65
2019-05-01T01:20:30.428Z,30.43
2019-05-01T01:22:58.688Z,30.90
2019-05-01T01:25:26.939Z,32.45
2019-05-01T01:27:55.184Z,32.53
2019-05-01T01:30:23.441Z,32.10
2019-05-01T01:32:51.693Z,32.30
2019-05-01T01:35:20.216Z,32.30
2019-05-01T01:37:48.464Z,32.65
2019-05-01T01:40:16.713Z,33.13
2019-05-01T01:42:46.611Z,32.80
2019-05-01T01:45:28.719Z,31.37
2019-05-01T01:48:10.453Z,32.03
2019-05-01T01:50:40.648Z,32.30
2019-05-01T01:53:08.974Z,30.60
2019-05-01T01:55:38.064Z,32.23
2019-05-01T01:58:06.601Z,32.60
2019-05-01T02:00:53.040Z,31.60
2019-05-01T02:03:22.931Z,32.48
2019-05-01T02:05:51.173Z,30.57
2019-05-01T02:08:19.434Z,33.15
2019-05-01T02:10:47.677Z,33.30
2019-05-01T02:13:15.936Z,34.30
2019-05-01T02:15:44.189Z,33.92
2019-05-01T02:18:12.444Z,31.27
2019-05-01T02:20:40.692Z,31.85
2019-05-01T02:23:08.953Z,31.42
2019-05-01T02:25:38.836Z,32.42
2019-05-01T02:28:25.674Z,32.83
2019-05-01T02:31:07.822Z,33.53
2019-05-01T02:33:40.583Z,32.85
2019-05-01T02:36:08.825Z,33.63
2019-05-01T02:38:37.560Z,39.45
2019-05-01T02:41:06.481Z,33.25
2019-05-01T02:43:36.177Z,33.33
2019-05-01T02:46:04.426Z,34.40
2019-05-01T02:48:33.207Z,33.67
2019-05-01T02:51:01.581Z,34.48
2019-05-01T02:53:29.865Z,36.80
2019-05-01T02:56:16.410Z,35.52
2019-05-01T02:58:44.664Z,35.92
2019-05-01T03:01:14.442Z,34.50
2019-05-01T03:03:43.053Z,36.70
2019-05-01T03:06:11.460Z,33.92
2019-05-01T03:08:39.721Z,34.45
2019-05-01T03:11:07.961Z,36.10
2019-05-01T03:13:36.218Z,34.50
2019-05-01T03:16:04.536Z,35.38
2019-05-01T03:18:37.321Z,35.60
2019-05-01T03:21:13.241Z,35.92
2019-05-01T03:23:43.138Z,35.50
2019-05-01T03:26:11.386Z,34.38
2019-05-01T03:28:39.640Z,35.08
2019-05-01T03:31:07.894Z,36.05
2019-05-01T03:33:36.226Z,35.30
2019-05-01T03:36:04.548Z,34.85
2019-05-01T03:38:32.797Z,33.02
2019-05-01T03:41:22.085Z,33.42
2019-05-01T03:43:50.920Z,33.10
2019-05-01T03:46:19.269Z,31.75
2019-05-01T03:48:47.577Z,32.80
2019-05-01T03:51:15.830Z,32.03
2019-05-01T03:53:44.081Z,31.68
2019-05-01T03:56:12.332Z,32.45
2019-05-01T03:58:40.590Z,31.82
2019-05-01T04:01:10.469Z,30.92
2019-05-01T04:03:46.580Z,33.42
2019-05-01T04:06:14.826Z,33.10
2019-05-01T04:08:43.159Z,30.57
2019-05-01T04:11:11.410Z,32.15
2019-05-01T04:13:40.106Z,32.70
2019-05-01T04:16:08.729Z,29.32
2019-05-01T04:18:36.988Z,33.50
2019-05-01T04:21:05.777Z,32.25
2019-05-01T04:23:34.028Z,31.68
2019-05-01T04:26:02.277Z,33.63
2019-05-01T04:28:35.112Z,32.17
2019-05-01T04:31:41.215Z,32.75
2019-05-01T04:34:18.212Z,32.00
2019-05-01T04:36:48.101Z,33.65
2019-05-01T04:39:16.360Z,33.65
2019-05-01T04:41:44.600Z,33.55
2019-05-01T04:44:12.862Z,32.55
2019-05-01T04:46:41.100Z,33.40
2019-05-01T04:49:09.357Z,32.03
2019-05-01T04:51:37.607Z,32.58
2019-05-01T04:54:05.857Z,29.57
2019-05-01T04:56:34.108Z,31.20
2019-05-01T04:59:02.356Z,30.85
2019-05-01T05:01:32.269Z,31.27
2019-05-01T05:04:00.528Z,32.03
2019-05-01T05:06:28.773Z,32.42
2019-05-01T05:08:57.028Z,31.55
2019-05-01T05:11:27.185Z,30.57
2019-05-01T05:14:15.312Z,31.12
2019-05-01T05:17:01.456Z,29.87
2019-05-01T05:19:29.800Z,30.37
2019-05-01T05:21:58.108Z,30.45
2019-05-01T05:24:26.373Z,31.20
2019-05-01T05:26:54.616Z,32.30
2019-05-01T05:29:22.881Z,28.57
2019-05-01T05:31:51.767Z,29.30
2019-05-01T05:34:20.327Z,29.12
2019-05-01T05:36:49.634Z,29.70
2019-05-01T05:39:28.264Z,29.77
2019-05-01T05:41:56.511Z,30.20
2019-05-01T05:44:24.937Z,31.42
2019-05-01T05:46:53.192Z,30.37
2019-05-01T05:49:21.444Z,29.95
2019-05-01T05:51:51.333Z,30.70
2019-05-01T05:54:31.410Z,28.38
2019-05-01T05:57:04.113Z,32.38
2019-05-01T05:59:34.009Z,31.05
2019-05-01T06:02:07.385Z,30.68
2019-05-01T06:04:37.411Z,30.90
2019-05-01T06:07:07.305Z,31.93
2019-05-01T06:09:37.205Z,32.95
2019-05-01T06:12:12.888Z,31.45
2019-05-01T06:14:51.588Z,32.98
2019-05-01T06:17:23.782Z,34.25
2019-05-01T06:19:56.232Z,33.80
2019-05-01T06:22:28.902Z,33.10
2019-05-01T06:24:58.811Z,32.45
2019-05-01T06:27:27.068Z,33.48
2019-05-01T06:29:55.396Z,31.42
2019-05-01T06:32:23.653Z,30.85
2019-05-01T06:34:51.917Z,31.57
2019-05-01T06:37:20.848Z,30.85
2019-05-01T06:39:50.170Z,32.98
2019-05-01T06:42:19.684Z,34.40
2019-05-01T06:44:49.585Z,36.73
2019-05-01T06:47:19.476Z,35.23
2019-05-01T06:49:49.828Z,34.48
2019-05-01T06:52:24.985Z,35.40
2019-05-01T06:54:53.622Z,37.38
2019-05-01T06:57:22.257Z,37.38
2019-05-01T06:59:50.528Z,37.28
2019-05-01T07:02:18.808Z,35.75
2019-05-01T07:04:47.592Z,40.35
2019-05-01T07:07:25.228Z,40.05
2019-05-01T07:09:49.203Z,40.35
2019-05-01T07:12:17.466Z,40.10
2019-05-01T07:14:50.454Z,39.15
2019-05-01T07:17:15.717Z,40.30
2019-05-01T07:19:57.585Z,39.83
2019-05-01T07:22:25.841Z,39.92
2019-05-01T07:24:54.156Z,39.65
2019-05-01T07:27:23.669Z,39.00
2019-05-01T07:29:54.042Z,39.95
2019-05-01T07:32:22.308Z,38.40
2019-05-01T07:34:50.564Z,38.65
2019-05-01T07:37:20.914Z,39.30
2019-05-01T07:39:49.811Z,39.45
2019-05-01T07:42:29.576Z,39.25
2019-05-01T07:45:18.841Z,37.95
2019-05-01T07:47:48.732Z,37.93
2019-05-01T07:50:17.674Z,38.15
2019-05-01T07:52:47.718Z,38.75
2019-05-01T07:55:18.191Z,38.58
2019-05-01T07:57:45.965Z,39.03
2019-05-01T08:00:28.056Z,38.02
2019-05-01T08:02:56.345Z,36.30
2019-05-01T08:05:24.596Z,38.13
2019-05-01T08:07:52.868Z,37.40
2019-05-01T08:10:25.414Z,35.63
2019-05-01T08:12:55.330Z,35.52
2019-05-01T08:15:22.509Z,36.45
2019-05-01T08:17:53.207Z,35.48
2019-05-01T08:20:33.158Z,39.38
2019-05-01T08:23:01.416Z,39.98
2019-05-01T08:25:33.258Z,39.40
2019-05-01T08:28:01.322Z,39.30
2019-05-01T08:30:34.185Z,39.10
2019-05-01T08:35:49.478Z,37.40
2019-05-01T08:38:17.752Z,37.67
2019-05-01T08:40:46.011Z,40.45
2019-05-01T08:43:18.051Z,39.63
2019-05-01T08:46:02.272Z,39.70
2019-05-01T08:48:35.885Z,40.05
2019-05-01T08:51:02.144Z,43.40
2019-05-01T08:53:30.409Z,41.50
2019-05-01T08:55:58.665Z,44.30
2019-05-01T08:58:26.938Z,44.85
2019-05-01T09:00:55.197Z,46.48
2019-05-01T09:03:23.490Z,46.10
2019-05-01T09:05:52.136Z,43.33
2019-05-01T09:08:21.742Z,44.40
2019-05-01T09:10:54.376Z,44.80
2019-05-01T09:13:23.703Z,45.50
2019-05-01T09:15:49.966Z,45.23
2019-05-01T09:18:18.941Z,44.63
2019-05-01T09:20:49.035Z,44.18
2019-05-01T09:23:17.389Z,44.75
2019-05-01T09:25:53.265Z,41.55
2019-05-01T09:28:23.174Z,43.87
2019-05-01T09:33:43.086Z,41.35
2019-05-01T09:36:11.410Z,42.50
2019-05-01T09:38:39.668Z,42.33
2019-05-01T09:41:07.928Z,42.73
2019-05-01T09:43:37.088Z,43.42
2019-05-01T09:46:05.539Z,42.33
2019-05-01T09:48:33.817Z,40.73
2019-05-01T09:51:06.821Z,41.60
2019-05-01T09:53:41.170Z,41.73
2019-05-01T09:56:17.260Z,42.00
2019-05-01T09:58:45.593Z,42.60
2019-05-01T10:01:13.894Z,43.28
2019-05-01T10:03:44.788Z,39.40
2019-05-01T10:06:12.744Z,41.18
2019-05-01T10:08:42.172Z,40.15
2019-05-01T10:11:10.498Z,37.38
2019-05-01T10:13:38.828Z,35.35
2019-05-01T10:16:07.098Z,37.55
2019-05-01T10:18:35.365Z,40.60
2019-05-01T10:21:03.625Z,39.73
2019-05-01T10:23:31.888Z,38.67
2019-05-01T10:26:01.788Z,40.70
2019-05-01T10:31:29.216Z,37.00
2019-05-01T10:34:07.546Z,37.75
2019-05-01T10:36:39.300Z,37.90
2019-05-01T10:39:08.117Z,36.65
2019-05-01T10:41:36.385Z,37.67
2019-05-01T10:44:04.657Z,34.83
2019-05-01T10:46:32.913Z,38.45
2019-05-01T10:49:01.203Z,38.08
2019-05-01T10:51:29.449Z,38.85
2019-05-01T10:53:57.801Z,38.30
2019-05-01T10:56:26.068Z,39.25
2019-05-01T10:58:54.332Z,37.17
2019-05-01T11:01:45.540Z,37.53
2019-05-01T11:04:13.816Z,37.70
2019-05-01T11:06:42.175Z,37.03
2019-05-01T11:09:10.510Z,35.55
2019-05-01T11:11:38.822Z,36.65
2019-05-01T11:14:07.273Z,37.73
2019-05-01T11:16:35.793Z,34.27
2019-05-01T11:19:04.056Z,35.33
2019-05-01T11:21:32.379Z,34.05
2019-05-01T11:24:00.701Z,34.50
2019-05-01T11:26:29.116Z,35.23
2019-05-01T11:28:57.709Z,35.95
2019-05-01T11:31:33.780Z,33.45
2019-05-01T11:37:13.463Z,34.10
2019-05-01T11:39:59.393Z,31.75
2019-05-01T11:42:27.652Z,31.60
2019-05-01T11:44:55.914Z,32.13
2019-05-01T11:47:24.160Z,31.12
2019-05-01T11:49:52.606Z,31.52
2019-05-01T11:52:20.854Z,31.82
2019-05-01T11:54:49.128Z,31.25
2019-05-01T11:57:17.462Z,33.08
2019-05-01T11:59:45.721Z,33.10
2019-05-01T12:02:17.046Z,29.60
2019-05-01T12:04:45.312Z,28.00
2019-05-01T12:07:13.596Z,30.68
2019-05-01T12:09:44.681Z,28.02
2019-05-01T12:12:14.576Z,26.82
2019-05-01T12:14:43.049Z,28.15
2019-05-01T12:17:12.959Z,27.95
2019-05-01T12:19:41.272Z,29.30
2019-05-01T12:22:09.596Z,27.75
2019-05-01T12:24:37.940Z,29.55
2019-05-01T12:27:06.220Z,32.58
2019-05-01T12:29:34.617Z,34.50
2019-05-01T12:32:03.048Z,34.63
2019-05-01T12:34:31.482Z,32.30
2019-05-01T12:37:04.093Z,30.52
2019-05-01T12:39:32.539Z,28.30
2019-05-01T12:42:02.563Z,29.50
2019-05-01T12:44:30.876Z,28.60
2019-05-01T12:47:03.635Z,34.92
2019-05-01T12:49:32.408Z,33.55
2019-05-01T12:52:10.247Z,34.45
2019-05-01T12:54:33.932Z,38.58
2019-05-01T12:57:02.877Z,39.60
2019-05-01T12:59:31.129Z,37.60
2019-05-01T13:01:59.479Z,36.42
2019-05-01T13:04:27.724Z,35.28
2019-05-01T13:06:56.855Z,37.23
2019-05-01T13:09:25.111Z,36.05
2019-05-01T13:11:53.369Z,37.48
2019-05-01T13:14:21.626Z,36.23
2019-05-01T13:16:49.938Z,33.50
2019-05-01T13:19:18.241Z,34.48
2019-05-01T13:21:46.557Z,34.15
2019-05-01T13:24:14.812Z,33.25
2019-05-01T13:26:47.413Z,31.40
2019-05-01T13:29:23.541Z,33.23
2019-05-01T13:34:42.713Z,30.43
2019-05-01T13:37:10.965Z,29.85
2019-05-01T13:39:39.211Z,29.85
2019-05-01T13:42:09.117Z,29.00
2019-05-01T13:44:37.692Z,27.15
2019-05-01T13:47:05.946Z,27.48
2019-05-01T13:49:34.318Z,26.52
2019-05-01T13:52:02.576Z,27.58
2019-05-01T13:54:30.834Z,25.20
2019-05-01T13:56:59.100Z,25.50
2019-05-01T13:59:27.354Z,24.43
2019-05-01T14:01:55.652Z,26.42
2019-05-01T14:04:24.668Z,27.00
2019-05-01T14:06:52.928Z,27.22
2019-05-01T14:09:22.824Z,27.07
2019-05-01T14:11:51.089Z,27.60
2019-05-01T14:14:19.369Z,28.67
2019-05-01T14:16:47.679Z,27.75
2019-05-01T14:19:15.928Z,28.98
2019-05-01T14:21:45.833Z,26.97
2019-05-01T14:27:08.868Z,28.80
2019-05-01T14:29:37.123Z,27.30
2019-05-01T14:32:05.386Z,29.50
2019-05-01T14:34:33.638Z,29.42
2019-05-01T14:37:01.896Z,29.50
2019-05-01T14:39:30.144Z,29.60
2019-05-01T14:41:58.415Z,29.45
2019-05-01T14:44:36.236Z,28.30
2019-05-01T14:46:56.652Z,30.00
2019-05-01T14:49:24.980Z,29.55
2019-05-01T14:51:53.249Z,29.65
2019-05-01T14:54:21.500Z,31.50
2019-05-01T14:56:49.766Z,30.57
2019-05-01T14:59:18.014Z,30.60
2019-05-01T15:01:47.278Z,29.30
2019-05-01T15:04:15.910Z,28.83
2019-05-01T15:06:44.175Z,29.82
2019-05-01T15:09:12.443Z,28.57
2019-05-01T15:11:41.881Z,28.62
2019-05-01T15:17:09.798Z,30.52
2019-05-01T15:19:42.485Z,28.50
2019-05-01T15:22:10.771Z,28.17
2019-05-01T15:24:39.033Z,29.25
2019-05-01T15:27:07.650Z,26.17
2019-05-01T15:29:35.952Z,28.65
2019-05-01T15:32:04.221Z,27.50
2019-05-01T15:34:32.548Z,26.20
2019-05-01T15:37:01.361Z,28.90
2019-05-01T15:39:31.248Z,28.07
2019-05-01T15:42:19.361Z,28.77
2019-05-01T15:44:47.848Z,27.58
2019-05-01T15:47:16.357Z,27.98
2019-05-01T15:49:44.617Z,28.05
2019-05-01T15:52:12.873Z,26.12
2019-05-01T15:54:41.125Z,29.23
2019-05-01T15:57:09.389Z,27.58
2019-05-01T15:59:37.648Z,27.15
2019-05-01T16:02:05.914Z,26.60
2019-05-01T16:04:34.212Z,24.50
2019-05-01T16:07:02.515Z,27.62
2019-05-01T16:09:30.777Z,27.10
2019-05-01T16:12:15.900Z,27.02
2019-05-01T16:14:45.036Z,27.48
2019-05-01T16:17:13.297Z,26.23
2019-05-01T16:19:41.554Z,27.65
2019-05-01T16:22:09.809Z,25.70
2019-05-01T16:24:38.074Z,27.05
2019-05-01T16:27:06.340Z,27.32
2019-05-01T16:29:34.615Z,26.30
2019-05-01T16:32:02.870Z,25.15
2019-05-01T16:34:31.132Z,26.48
2019-05-01T16:36:59.389Z,26.40
2019-05-01T16:39:46.526Z,26.35
2019-05-01T16:42:14.845Z,27.93
2019-05-01T16:44:43.109Z,26.93
2019-05-01T16:47:11.364Z,26.52
2019-05-01T16:49:39.624Z,26.10
2019-05-01T16:52:07.949Z,25.43
2019-05-01T16:54:36.241Z,26.27
2019-05-01T16:57:04.495Z,27.52
2019-05-01T16:59:52.841Z,27.55
2019-05-01T17:02:28.412Z,27.70
2019-05-01T17:04:58.312Z,26.12
2019-05-01T17:07:43.451Z,27.13
2019-05-01T17:10:16.153Z,27.13
2019-05-01T17:12:51.797Z,25.92
2019-05-01T17:15:27.897Z,28.17
2019-05-01T17:17:56.151Z,27.80
2019-05-01T17:20:24.893Z,27.42
2019-05-01T17:22:53.157Z,28.02
2019-05-01T17:25:21.584Z,29.67
2019-05-01T17:27:49.881Z,28.50
2019-05-01T17:30:25.696Z,29.50
2019-05-01T17:32:54.188Z,26.75
2019-05-01T17:35:22.459Z,28.02
2019-05-01T17:37:50.713Z,27.75
2019-05-01T17:40:19.224Z,26.60
2019-05-01T17:42:47.487Z,28.27
2019-05-01T17:45:15.757Z,30.32
2019-05-01T17:47:44.017Z,29.50
2019-05-01T17:50:16.348Z,29.87
2019-05-01T17:52:42.267Z,31.23
2019-05-01T17:55:10.538Z,30.02
2019-05-01T17:57:38.855Z,29.63
2019-05-01T18:00:25.831Z,30.72
2019-05-01T18:02:55.736Z,30.68
2019-05-01T18:05:41.835Z,31.97
2019-05-01T18:08:10.465Z,33.25
2019-05-01T18:10:39.776Z,30.48
2019-05-01T18:13:08.384Z,32.88
2019-05-01T18:15:36.652Z,33.55
2019-05-01T18:18:04.935Z,33.85
2019-05-01T18:20:33.248Z,31.52
2019-05-01T18:25:57.668Z,31.77
2019-05-01T18:28:45.162Z,32.53
2019-05-01T18:34:04.474Z,33.63
2019-05-01T18:36:34.652Z,34.53
2019-05-01T18:39:16.690Z,32.58
2019-05-01T18:41:45.088Z,32.40
2019-05-01T18:44:13.380Z,35.55
2019-05-01T18:46:41.710Z,35.75
2019-05-01T18:49:09.970Z,34.63
2019-05-01T18:51:40.790Z,34.88
2019-05-01T18:54:08.216Z,35.45
2019-05-01T18:56:38.222Z,34.98
2019-05-01T18:59:06.503Z,35.17
2019-05-01T19:01:34.761Z,35.10
2019-05-01T19:04:03.089Z,36.33
2019-05-01T19:06:40.937Z,37.60
2019-05-01T19:09:13.983Z,35.60
2019-05-01T19:11:31.519Z,36.42
2019-05-01T19:13:59.766Z,36.17
2019-05-01T19:16:28.080Z,36.13
2019-05-01T19:18:56.373Z,37.58
2019-05-01T19:21:26.298Z,36.40
2019-05-01T19:23:54.703Z,36.03
2019-05-01T19:26:23.105Z,38.58
2019-05-01T19:28:51.518Z,36.40
2019-05-01T19:31:21.376Z,38.25
2019-05-01T19:33:49.939Z,37.65
2019-05-01T19:36:18.241Z,37.83
2019-05-01T19:38:46.492Z,37.42
2019-05-01T19:41:14.758Z,37.88
2019-05-01T19:43:43.013Z,37.78
2019-05-01T19:46:11.319Z,38.00
2019-05-01T19:48:39.641Z,37.90
2019-05-01T19:51:07.980Z,38.02
2019-05-01T19:53:36.266Z,36.77
2019-05-01T19:56:04.549Z,36.53
2019-05-01T19:58:32.880Z,40.05
2019-05-01T20:01:04.257Z,40.05
2019-05-01T20:03:36.295Z,39.73
2019-05-01T20:06:05.615Z,39.75
2019-05-01T20:08:31.279Z,39.05
2019-05-01T20:10:59.552Z,39.00
2019-05-01T20:13:27.841Z,39.13
2019-05-01T20:15:56.105Z,38.42
2019-05-01T20:18:24.371Z,40.20
2019-05-01T20:20:52.637Z,37.80
2019-05-01T20:23:20.889Z,37.93
2019-05-01T20:25:51.069Z,36.95
2019-05-01T20:28:20.047Z,39.88
2019-05-01T20:30:49.636Z,37.30
2019-05-01T20:33:18.149Z,36.30
2019-05-01T20:35:46.403Z,39.63
2019-05-01T20:38:14.667Z,39.88
2019-05-01T20:40:42.929Z,39.75
2019-05-01T20:43:11.197Z,41.00
2019-05-01T20:45:39.674Z,40.55
2019-05-01T20:48:08.154Z,39.60
2019-05-01T20:50:36.413Z,40.17
2019-05-01T20:53:04.669Z,41.02
2019-05-01T20:55:32.933Z,41.25
2019-05-01T20:58:08.552Z,40.92
2019-05-01T21:00:36.885Z,40.17
2019-05-01T21:03:05.133Z,42.55
2019-05-01T21:05:35.029Z,40.38
2019-05-01T21:10:50.575Z,40.00
2019-05-01T21:13:17.648Z,41.37
2019-05-01T21:15:47.410Z,40.38
2019-05-01T21:18:15.951Z,41.63
2019-05-01T21:20:44.213Z,42.27
2019-05-01T21:23:14.266Z,43.13
2019-05-01T21:25:43.884Z,42.65
2019-05-01T21:28:14.130Z,41.00
2019-05-01T21:30:43.883Z,41.73
2019-05-01T21:33:13.841Z,42.17
2019-05-01T21:35:44.346Z,43.98
2019-05-01T21:38:12.352Z,45.48
2019-05-01T21:40:41.273Z,44.63
2019-05-01T21:43:10.588Z,44.83
2019-05-01T21:45:38.842Z,44.65
2019-05-01T21:48:07.101Z,44.00
2019-05-01T21:50:35.362Z,45.40
2019-05-01T21:53:06.791Z,44.90
2019-05-01T21:55:33.597Z,45.58
2019-05-01T21:58:01.863Z,46.37
2019-05-01T22:00:31.761Z,45.33
2019-05-01T22:03:00.055Z,43.48
2019-05-01T22:05:28.365Z,45.20
2019-05-01T22:07:58.778Z,46.92
2019-05-01T22:10:28.420Z,47.30
2019-05-01T22:12:56.600Z,46.40
2019-05-01T22:15:26.498Z,47.93
2019-05-01T22:20:34.416Z,46.98
2019-05-01T22:23:04.324Z,46.18
2019-05-01T22:25:37.161Z,47.33
2019-05-01T22:31:21.821Z,48.23
2019-05-01T22:33:50.985Z,48.63
2019-05-01T22:36:19.234Z,47.75
2019-05-01T22:38:47.504Z,50.75
2019-05-01T22:41:15.759Z,50.12
2019-05-01T22:43:44.022Z,49.98
2019-05-01T22:46:13.912Z,50.05
2019-05-01T22:48:42.164Z,50.75
2019-05-01T22:51:12.056Z,51.02
2019-05-01T22:53:40.320Z,49.53
2019-05-01T22:56:08.584Z,49.58
2019-05-01T22:58:36.840Z,50.55
2019-05-01T23:01:05.969Z,51.05
2019-05-01T23:03:40.843Z,50.92
2019-05-01T23:06:06.315Z,50.30
2019-05-01T23:08:35.832Z,51.05
2019-05-01T23:11:04.073Z,50.00
2019-05-01T23:13:32.336Z,51.70
2019-05-01T23:16:00.661Z,49.73
2019-05-01T23:18:28.917Z,50.75
2019-05-01T23:20:57.164Z,50.75
2019-05-01T23:23:25.423Z,50.52
2019-05-01T23:25:53.673Z,49.95
2019-05-01T23:28:21.944Z,50.28
2019-05-01T23:30:50.257Z,51.02
2019-05-01T23:33:18.516Z,49.53
2019-05-01T23:35:46.764Z,51.13
2019-05-01T23:38:15.020Z,52.90
2019-05-01T23:40:46.209Z,52.67
2019-05-01T23:43:13.239Z,52.70
2019-05-01T23:45:41.500Z,52.90
2019-05-01T23:48:09.748Z,51.13
2019-05-01T23:50:38.004Z,52.03
2019-05-01T23:53:09.114Z,53.50
2019-05-01T23:55:36.236Z,52.48
2019-05-01T23:58:04.561Z,53.38
